sensor_id;sensor_type;location;lat;lon;timestamp;P1;durP1;ratioP1;P2;durP2;ratioP2
4555;SDS011;2290;48.674;9.018;2023-05-10T00:02:09;1.10;;;1.00;;
4555;SDS011;2290;48.674;9.018;2023-05-10T00:04:35;1.27;;;1.17;;
4555;SDS011;2290;48.674;9.018;2023-05-10T00:07:01;1.10;;;1.00;;
4555;SDS011;2290;48.674;9.018;2023-05-10T00:09:27;2.07;;;1.30;;
4555;SDS011;2290;48.674;9.018;2023-05-10T00:11:53;1.30;;;1.13;;
4555;SDS011;2290;48.674;9.018;2023-05-10T00:14:18;1.20;;;1.10;;
4555;SDS011;2290;48.674;9.018;2023-05-10T00:16:45;1.77;;;1.13;;
4555;SDS011;2290;48.674;9.018;2023-05-10T00:19:12;1.30;;;1.20;;
4555;SDS011;2290;48.674;9.018;2023-05-10T00:21:37;1.30;;;1.10;;
4555;SDS011;2290;48.674;9.018;2023-05-10T00:24:03;1.10;;;1.00;;
4555;SDS011;2290;48.674;9.018;2023-05-10T00:26:30;1.20;;;0.90;;
4555;SDS011;2290;48.674;9.018;2023-05-10T00:28:56;1.00;;;0.90;;
4555;SDS011;2290;48.674;9.018;2023-05-10T00:31:23;1.10;;;1.00;;
4555;SDS011;2290;48.674;9.018;2023-05-10T00:33:48;2.93;;;1.00;;
4555;SDS011;2290;48.674;9.018;2023-05-10T00:36:14;1.00;;;0.90;;
4555;SDS011;2290;48.674;9.018;2023-05-10T00:38:40;0.90;;;0.80;;
4555;SDS011;2290;48.674;9.018;2023-05-10T00:41:05;1.07;;;0.90;;
4555;SDS011;2290;48.674;9.018;2023-05-10T00:43:31;1.10;;;0.80;;
4555;SDS011;2290;48.674;9.018;2023-05-10T00:45:57;1.17;;;0.90;;
4555;SDS011;2290;48.674;9.018;2023-05-10T00:48:22;1.00;;;0.90;;
4555;SDS011;2290;48.674;9.018;2023-05-10T00:50:48;1.00;;;0.80;;
4555;SDS011;2290;48.674;9.018;2023-05-10T00:53:15;1.00;;;0.73;;
4555;SDS011;2290;48.674;9.018;2023-05-10T00:55:41;0.87;;;0.70;;
4555;SDS011;2290;48.674;9.018;2023-05-10T00:58:07;0.83;;;0.70;;
4555;SDS011;2290;48.674;9.018;2023-05-10T01:00:33;0.80;;;0.70;;
4555;SDS011;2290;48.674;9.018;2023-05-10T01:03:00;1.30;;;0.80;;
4555;SDS011;2290;48.674;9.018;2023-05-10T01:05:27;1.47;;;0.80;;
4555;SDS011;2290;48.674;9.018;2023-05-10T01:07:53;1.00;;;0.80;;
4555;SDS011;2290;48.674;9.018;2023-05-10T01:10:18;1.27;;;1.00;;
4555;SDS011;2290;48.674;9.018;2023-05-10T01:12:45;1.10;;;0.80;;
4555;SDS011;2290;48.674;9.018;2023-05-10T01:15:12;1.00;;;0.90;;
4555;SDS011;2290;48.674;9.018;2023-05-10T01:17:40;2.40;;;0.80;;
4555;SDS011;2290;48.674;9.018;2023-05-10T01:20:09;1.00;;;0.90;;
4555;SDS011;2290;48.674;9.018;2023-05-10T01:34:02;1.47;;;0.70;;
4555;SDS011;2290;48.674;9.018;2023-05-10T01:36:51;0.90;;;0.80;;
4555;SDS011;2290;48.674;9.018;2023-05-10T01:47:11;1.10;;;0.80;;
4555;SDS011;2290;48.674;9.018;2023-05-10T01:49:52;0.87;;;0.70;;
4555;SDS011;2290;48.674;9.018;2023-05-10T01:52:21;0.80;;;0.60;;
4555;SDS011;2290;48.674;9.018;2023-05-10T01:55:25;0.90;;;0.70;;
4555;SDS011;2290;48.674;9.018;2023-05-10T01:57:46;0.80;;;0.63;;
4555;SDS011;2290;48.674;9.018;2023-05-10T02:00:15;0.97;;;0.80;;
4555;SDS011;2290;48.674;9.018;2023-05-10T02:02:47;0.90;;;0.80;;
4555;SDS011;2290;48.674;9.018;2023-05-10T02:05:15;0.87;;;0.70;;
4555;SDS011;2290;48.674;9.018;2023-05-10T02:07:42;0.90;;;0.77;;
4555;SDS011;2290;48.674;9.018;2023-05-10T02:10:09;3.90;;;0.80;;
4555;SDS011;2290;48.674;9.018;2023-05-10T02:12:36;2.03;;;0.90;;
4555;SDS011;2290;48.674;9.018;2023-05-10T02:15:07;2.30;;;0.90;;
4555;SDS011;2290;48.674;9.018;2023-05-10T02:17:36;1.10;;;0.87;;
4555;SDS011;2290;48.674;9.018;2023-05-10T02:20:03;1.10;;;0.80;;
4555;SDS011;2290;48.674;9.018;2023-05-10T02:22:31;1.60;;;0.87;;
4555;SDS011;2290;48.674;9.018;2023-05-10T02:24:58;1.00;;;0.90;;
4555;SDS011;2290;48.674;9.018;2023-05-10T02:27:27;1.10;;;0.90;;
4555;SDS011;2290;48.674;9.018;2023-05-10T02:29:54;1.47;;;1.20;;
4555;SDS011;2290;48.674;9.018;2023-05-10T02:32:20;1.20;;;1.00;;
4555;SDS011;2290;48.674;9.018;2023-05-10T02:34:48;1.00;;;0.90;;
4555;SDS011;2290;48.674;9.018;2023-05-10T02:37:17;1.10;;;0.90;;
4555;SDS011;2290;48.674;9.018;2023-05-10T02:39:45;1.00;;;0.87;;
4555;SDS011;2290;48.674;9.018;2023-05-10T02:42:15;0.97;;;0.87;;
4555;SDS011;2290;48.674;9.018;2023-05-10T02:44:43;1.00;;;0.90;;
4555;SDS011;2290;48.674;9.018;2023-05-10T02:47:12;1.20;;;1.03;;
4555;SDS011;2290;48.674;9.018;2023-05-10T02:49:38;0.90;;;0.80;;
4555;SDS011;2290;48.674;9.018;2023-05-10T02:52:04;0.90;;;0.80;;
4555;SDS011;2290;48.674;9.018;2023-05-10T02:54:35;1.10;;;0.90;;
4555;SDS011;2290;48.674;9.018;2023-05-10T02:57:10;1.00;;;0.90;;
4555;SDS011;2290;48.674;9.018;2023-05-10T02:59:40;2.17;;;1.00;;
4555;SDS011;2290;48.674;9.018;2023-05-10T03:02:08;1.00;;;0.90;;
4555;SDS011;2290;48.674;9.018;2023-05-10T03:04:35;1.10;;;0.90;;
4555;SDS011;2290;48.674;9.018;2023-05-10T03:07:01;1.63;;;1.03;;
4555;SDS011;2290;48.674;9.018;2023-05-10T03:09:26;1.07;;;0.97;;
4555;SDS011;2290;48.674;9.018;2023-05-10T03:17:39;1.20;;;1.10;;
4555;SDS011;2290;48.674;9.018;2023-05-10T03:20:12;1.77;;;1.13;;
4555;SDS011;2290;48.674;9.018;2023-05-10T03:22:53;1.27;;;1.00;;
4555;SDS011;2290;48.674;9.018;2023-05-10T03:25:25;1.17;;;1.07;;
4555;SDS011;2290;48.674;9.018;2023-05-10T03:27:51;1.37;;;0.93;;
4555;SDS011;2290;48.674;9.018;2023-05-10T03:30:17;1.10;;;1.00;;
4555;SDS011;2290;48.674;9.018;2023-05-10T03:32:44;1.00;;;0.90;;
4555;SDS011;2290;48.674;9.018;2023-05-10T03:35:11;0.93;;;0.83;;
4555;SDS011;2290;48.674;9.018;2023-05-10T03:37:38;4.07;;;1.20;;
4555;SDS011;2290;48.674;9.018;2023-05-10T03:40:04;1.13;;;1.03;;
4555;SDS011;2290;48.674;9.018;2023-05-10T03:42:30;1.23;;;1.13;;
4555;SDS011;2290;48.674;9.018;2023-05-10T03:44:56;1.13;;;0.93;;
4555;SDS011;2290;48.674;9.018;2023-05-10T03:47:21;1.30;;;1.20;;
4555;SDS011;2290;48.674;9.018;2023-05-10T03:49:47;1.10;;;1.00;;
4555;SDS011;2290;48.674;9.018;2023-05-10T03:52:12;1.10;;;1.00;;
4555;SDS011;2290;48.674;9.018;2023-05-10T03:54:39;1.10;;;1.00;;
4555;SDS011;2290;48.674;9.018;2023-05-10T03:57:04;1.20;;;1.10;;
4555;SDS011;2290;48.674;9.018;2023-05-10T03:59:30;1.30;;;1.20;;
4555;SDS011;2290;48.674;9.018;2023-05-10T04:01:56;1.60;;;1.10;;
4555;SDS011;2290;48.674;9.018;2023-05-10T04:04:21;1.60;;;1.27;;
4555;SDS011;2290;48.674;9.018;2023-05-10T04:06:48;1.20;;;1.10;;
4555;SDS011;2290;48.674;9.018;2023-05-10T04:09:14;1.23;;;1.13;;
4555;SDS011;2290;48.674;9.018;2023-05-10T04:11:40;1.03;;;0.90;;
4555;SDS011;2290;48.674;9.018;2023-05-10T04:14:05;1.43;;;1.20;;
4555;SDS011;2290;48.674;9.018;2023-05-10T04:16:36;1.30;;;1.20;;
4555;SDS011;2290;48.674;9.018;2023-05-10T04:19:09;1.60;;;1.03;;
4555;SDS011;2290;48.674;9.018;2023-05-10T04:21:45;1.30;;;1.10;;
4555;SDS011;2290;48.674;9.018;2023-05-10T04:24:10;1.20;;;1.10;;
4555;SDS011;2290;48.674;9.018;2023-05-10T04:26:37;1.20;;;1.10;;
4555;SDS011;2290;48.674;9.018;2023-05-10T04:29:04;1.30;;;1.10;;
4555;SDS011;2290;48.674;9.018;2023-05-10T04:31:30;1.97;;;1.10;;
4555;SDS011;2290;48.674;9.018;2023-05-10T04:33:55;1.10;;;1.00;;
4555;SDS011;2290;48.674;9.018;2023-05-10T04:36:22;1.57;;;1.23;;
4555;SDS011;2290;48.674;9.018;2023-05-10T04:38:50;1.30;;;1.10;;
4555;SDS011;2290;48.674;9.018;2023-05-10T04:41:16;2.93;;;1.47;;
4555;SDS011;2290;48.674;9.018;2023-05-10T04:43:42;2.23;;;1.27;;
4555;SDS011;2290;48.674;9.018;2023-05-10T04:46:07;1.27;;;1.10;;
4555;SDS011;2290;48.674;9.018;2023-05-10T04:48:33;1.77;;;1.33;;
4555;SDS011;2290;48.674;9.018;2023-05-10T04:50:58;1.20;;;1.10;;
4555;SDS011;2290;48.674;9.018;2023-05-10T04:53:24;1.50;;;1.20;;
4555;SDS011;2290;48.674;9.018;2023-05-10T04:55:50;1.20;;;1.10;;
4555;SDS011;2290;48.674;9.018;2023-05-10T04:58:15;1.70;;;1.13;;
4555;SDS011;2290;48.674;9.018;2023-05-10T05:00:41;1.50;;;1.07;;
4555;SDS011;2290;48.674;9.018;2023-05-10T05:03:07;2.83;;;1.37;;
4555;SDS011;2290;48.674;9.018;2023-05-10T05:05:32;2.73;;;1.37;;
4555;SDS011;2290;48.674;9.018;2023-05-10T05:07:58;1.67;;;1.50;;
4555;SDS011;2290;48.674;9.018;2023-05-10T05:10:23;1.03;;;0.90;;
4555;SDS011;2290;48.674;9.018;2023-05-10T05:12:49;1.33;;;1.20;;
4555;SDS011;2290;48.674;9.018;2023-05-10T05:15:15;1.47;;;1.00;;
4555;SDS011;2290;48.674;9.018;2023-05-10T05:17:41;3.87;;;1.40;;
4555;SDS011;2290;48.674;9.018;2023-05-10T05:20:07;1.87;;;1.33;;
4555;SDS011;2290;48.674;9.018;2023-05-10T05:22:33;1.73;;;1.40;;
4555;SDS011;2290;48.674;9.018;2023-05-10T05:25:00;2.03;;;1.17;;
4555;SDS011;2290;48.674;9.018;2023-05-10T05:27:27;2.03;;;1.47;;
4555;SDS011;2290;48.674;9.018;2023-05-10T05:29:53;3.33;;;1.10;;
4555;SDS011;2290;48.674;9.018;2023-05-10T05:32:19;2.43;;;1.23;;
4555;SDS011;2290;48.674;9.018;2023-05-10T05:34:45;1.67;;;1.37;;
4555;SDS011;2290;48.674;9.018;2023-05-10T05:37:14;2.90;;;1.20;;
4555;SDS011;2290;48.674;9.018;2023-05-10T05:39:41;1.20;;;1.10;;
4555;SDS011;2290;48.674;9.018;2023-05-10T05:42:08;2.47;;;1.30;;
4555;SDS011;2290;48.674;9.018;2023-05-10T05:44:34;1.43;;;1.30;;
4555;SDS011;2290;48.674;9.018;2023-05-10T05:46:59;1.57;;;1.47;;
4555;SDS011;2290;48.674;9.018;2023-05-10T05:49:25;1.63;;;1.40;;
4555;SDS011;2290;48.674;9.018;2023-05-10T05:51:50;1.83;;;1.50;;
4555;SDS011;2290;48.674;9.018;2023-05-10T05:54:16;1.30;;;1.20;;
4555;SDS011;2290;48.674;9.018;2023-05-10T05:56:42;1.63;;;1.30;;
4555;SDS011;2290;48.674;9.018;2023-05-10T05:59:09;5.47;;;1.40;;
4555;SDS011;2290;48.674;9.018;2023-05-10T06:01:35;1.50;;;1.40;;
4555;SDS011;2290;48.674;9.018;2023-05-10T06:04:00;1.57;;;1.40;;
4555;SDS011;2290;48.674;9.018;2023-05-10T06:06:26;2.47;;;1.40;;
4555;SDS011;2290;48.674;9.018;2023-05-10T06:08:53;2.10;;;1.43;;
4555;SDS011;2290;48.674;9.018;2023-05-10T06:11:20;1.43;;;1.33;;
4555;SDS011;2290;48.674;9.018;2023-05-10T06:13:46;1.50;;;1.30;;
4555;SDS011;2290;48.674;9.018;2023-05-10T06:16:12;1.53;;;1.37;;
4555;SDS011;2290;48.674;9.018;2023-05-10T06:18:38;2.60;;;1.30;;
4555;SDS011;2290;48.674;9.018;2023-05-10T06:21:05;1.53;;;1.43;;
4555;SDS011;2290;48.674;9.018;2023-05-10T06:23:30;4.90;;;1.50;;
4555;SDS011;2290;48.674;9.018;2023-05-10T06:25:56;1.70;;;1.60;;
4555;SDS011;2290;48.674;9.018;2023-05-10T06:28:22;1.50;;;1.40;;
4555;SDS011;2290;48.674;9.018;2023-05-10T06:30:47;1.43;;;1.20;;
4555;SDS011;2290;48.674;9.018;2023-05-10T06:33:13;1.60;;;1.50;;
4555;SDS011;2290;48.674;9.018;2023-05-10T06:35:39;1.73;;;1.60;;
4555;SDS011;2290;48.674;9.018;2023-05-10T06:38:04;1.30;;;1.20;;
4555;SDS011;2290;48.674;9.018;2023-05-10T06:40:30;2.13;;;1.40;;
4555;SDS011;2290;48.674;9.018;2023-05-10T06:42:55;1.80;;;1.53;;
4555;SDS011;2290;48.674;9.018;2023-05-10T06:45:21;1.30;;;1.20;;
4555;SDS011;2290;48.674;9.018;2023-05-10T06:47:47;1.57;;;1.37;;
4555;SDS011;2290;48.674;9.018;2023-05-10T06:50:12;1.70;;;1.27;;
4555;SDS011;2290;48.674;9.018;2023-05-10T06:52:38;1.60;;;1.43;;
4555;SDS011;2290;48.674;9.018;2023-05-10T06:55:04;1.60;;;1.43;;
4555;SDS011;2290;48.674;9.018;2023-05-10T06:57:31;18.17;;;2.90;;
4555;SDS011;2290;48.674;9.018;2023-05-10T06:59:58;1.40;;;1.30;;
4555;SDS011;2290;48.674;9.018;2023-05-10T07:02:23;1.90;;;1.50;;
4555;SDS011;2290;48.674;9.018;2023-05-10T07:04:49;1.83;;;1.40;;
4555;SDS011;2290;48.674;9.018;2023-05-10T07:07:16;2.93;;;1.50;;
4555;SDS011;2290;48.674;9.018;2023-05-10T07:09:42;2.70;;;1.60;;
4555;SDS011;2290;48.674;9.018;2023-05-10T07:12:07;1.97;;;1.57;;
4555;SDS011;2290;48.674;9.018;2023-05-10T07:14:33;1.70;;;1.60;;
4555;SDS011;2290;48.674;9.018;2023-05-10T07:16:59;1.90;;;1.60;;
4555;SDS011;2290;48.674;9.018;2023-05-10T07:19:24;2.00;;;1.30;;
4555;SDS011;2290;48.674;9.018;2023-05-10T07:21:50;1.60;;;1.43;;
4555;SDS011;2290;48.674;9.018;2023-05-10T07:24:16;1.40;;;1.30;;
4555;SDS011;2290;48.674;9.018;2023-05-10T07:26:41;1.30;;;1.20;;
4555;SDS011;2290;48.674;9.018;2023-05-10T07:29:07;1.70;;;1.30;;
4555;SDS011;2290;48.674;9.018;2023-05-10T07:31:32;2.87;;;1.60;;
4555;SDS011;2290;48.674;9.018;2023-05-10T07:33:58;3.47;;;1.47;;
4555;SDS011;2290;48.674;9.018;2023-05-10T07:36:24;1.47;;;1.20;;
4555;SDS011;2290;48.674;9.018;2023-05-10T07:38:50;3.00;;;1.40;;
4555;SDS011;2290;48.674;9.018;2023-05-10T07:41:16;3.10;;;1.37;;
4555;SDS011;2290;48.674;9.018;2023-05-10T07:43:41;1.50;;;1.40;;
4555;SDS011;2290;48.674;9.018;2023-05-10T07:46:07;2.13;;;1.10;;
4555;SDS011;2290;48.674;9.018;2023-05-10T07:48:34;1.60;;;1.30;;
4555;SDS011;2290;48.674;9.018;2023-05-10T07:51:01;1.17;;;1.07;;
4555;SDS011;2290;48.674;9.018;2023-05-10T07:53:27;3.63;;;1.67;;
4555;SDS011;2290;48.674;9.018;2023-05-10T07:55:54;1.20;;;1.10;;
4555;SDS011;2290;48.674;9.018;2023-05-10T07:58:23;1.33;;;1.07;;
4555;SDS011;2290;48.674;9.018;2023-05-10T08:00:49;1.20;;;1.10;;
4555;SDS011;2290;48.674;9.018;2023-05-10T08:03:15;1.20;;;1.10;;
4555;SDS011;2290;48.674;9.018;2023-05-10T08:05:40;1.30;;;1.17;;
4555;SDS011;2290;48.674;9.018;2023-05-10T08:08:06;3.60;;;1.40;;
4555;SDS011;2290;48.674;9.018;2023-05-10T08:10:32;5.20;;;1.07;;
4555;SDS011;2290;48.674;9.018;2023-05-10T08:12:58;1.10;;;1.00;;
4555;SDS011;2290;48.674;9.018;2023-05-10T08:15:24;2.70;;;1.03;;
4555;SDS011;2290;48.674;9.018;2023-05-10T08:17:51;1.13;;;0.90;;
4555;SDS011;2290;48.674;9.018;2023-05-10T08:20:16;1.50;;;1.10;;
4555;SDS011;2290;48.674;9.018;2023-05-10T08:22:44;4.03;;;1.23;;
4555;SDS011;2290;48.674;9.018;2023-05-10T08:25:10;1.50;;;1.00;;
4555;SDS011;2290;48.674;9.018;2023-05-10T08:27:36;1.67;;;0.80;;
4555;SDS011;2290;48.674;9.018;2023-05-10T08:30:02;1.10;;;1.00;;
4555;SDS011;2290;48.674;9.018;2023-05-10T08:32:27;1.70;;;1.10;;
4555;SDS011;2290;48.674;9.018;2023-05-10T08:34:53;1.20;;;1.00;;
4555;SDS011;2290;48.674;9.018;2023-05-10T08:37:25;1.10;;;0.90;;
4555;SDS011;2290;48.674;9.018;2023-05-10T08:39:51;1.10;;;0.90;;
4555;SDS011;2290;48.674;9.018;2023-05-10T08:42:16;1.20;;;1.10;;
4555;SDS011;2290;48.674;9.018;2023-05-10T08:44:47;1.20;;;1.00;;
4555;SDS011;2290;48.674;9.018;2023-05-10T08:47:15;1.00;;;0.83;;
4555;SDS011;2290;48.674;9.018;2023-05-10T08:49:43;1.10;;;1.00;;
4555;SDS011;2290;48.674;9.018;2023-05-10T08:52:12;3.27;;;1.00;;
4555;SDS011;2290;48.674;9.018;2023-05-10T08:54:41;1.00;;;0.90;;
4555;SDS011;2290;48.674;9.018;2023-05-10T08:57:07;1.00;;;0.90;;
4555;SDS011;2290;48.674;9.018;2023-05-10T08:59:32;1.17;;;0.93;;
4555;SDS011;2290;48.674;9.018;2023-05-10T09:01:59;1.00;;;0.80;;
4555;SDS011;2290;48.674;9.018;2023-05-10T09:04:26;1.67;;;1.00;;
4555;SDS011;2290;48.674;9.018;2023-05-10T09:06:53;1.10;;;0.90;;
4555;SDS011;2290;48.674;9.018;2023-05-10T09:09:20;1.20;;;1.00;;
4555;SDS011;2290;48.674;9.018;2023-05-10T09:11:47;0.90;;;0.80;;
4555;SDS011;2290;48.674;9.018;2023-05-10T09:14:15;1.00;;;0.90;;
4555;SDS011;2290;48.674;9.018;2023-05-10T09:16:41;1.10;;;1.00;;
4555;SDS011;2290;48.674;9.018;2023-05-10T09:19:07;1.07;;;0.97;;
4555;SDS011;2290;48.674;9.018;2023-05-10T09:21:43;0.90;;;0.80;;
4555;SDS011;2290;48.674;9.018;2023-05-10T09:24:08;0.97;;;0.80;;
4555;SDS011;2290;48.674;9.018;2023-05-10T09:26:34;1.10;;;0.80;;
4555;SDS011;2290;48.674;9.018;2023-05-10T09:29:01;2.03;;;0.87;;
4555;SDS011;2290;48.674;9.018;2023-05-10T09:34:17;1.00;;;0.90;;
4555;SDS011;2290;48.674;9.018;2023-05-10T09:36:56;1.13;;;0.90;;
4555;SDS011;2290;48.674;9.018;2023-05-10T09:39:31;1.00;;;0.83;;
4555;SDS011;2290;48.674;9.018;2023-05-10T09:42:02;1.17;;;0.90;;
4555;SDS011;2290;48.674;9.018;2023-05-10T09:44:31;1.00;;;0.90;;
4555;SDS011;2290;48.674;9.018;2023-05-10T09:46:57;1.10;;;0.90;;
4555;SDS011;2290;48.674;9.018;2023-05-10T09:49:23;1.40;;;0.90;;
4555;SDS011;2290;48.674;9.018;2023-05-10T09:52:02;1.20;;;0.80;;
4555;SDS011;2290;48.674;9.018;2023-05-10T09:54:29;0.90;;;0.70;;
4555;SDS011;2290;48.674;9.018;2023-05-10T09:56:55;0.90;;;0.80;;
4555;SDS011;2290;48.674;9.018;2023-05-10T09:59:20;3.43;;;1.20;;
4555;SDS011;2290;48.674;9.018;2023-05-10T10:01:50;1.30;;;0.90;;
4555;SDS011;2290;48.674;9.018;2023-05-10T10:04:16;2.17;;;1.20;;
4555;SDS011;2290;48.674;9.018;2023-05-10T10:06:42;1.20;;;1.10;;
4555;SDS011;2290;48.674;9.018;2023-05-10T10:09:08;1.60;;;1.00;;
4555;SDS011;2290;48.674;9.018;2023-05-10T10:11:34;2.70;;;1.10;;
4555;SDS011;2290;48.674;9.018;2023-05-10T10:14:01;1.40;;;1.07;;
4555;SDS011;2290;48.674;9.018;2023-05-10T10:16:28;1.30;;;0.80;;
4555;SDS011;2290;48.674;9.018;2023-05-10T10:18:54;1.53;;;0.90;;
4555;SDS011;2290;48.674;9.018;2023-05-10T10:21:20;1.00;;;0.90;;
4555;SDS011;2290;48.674;9.018;2023-05-10T10:23:47;0.90;;;0.80;;
4555;SDS011;2290;48.674;9.018;2023-05-10T10:26:13;1.40;;;1.07;;
4555;SDS011;2290;48.674;9.018;2023-05-10T10:28:51;1.43;;;1.00;;
4555;SDS011;2290;48.674;9.018;2023-05-10T10:34:03;1.20;;;0.93;;
4555;SDS011;2290;48.674;9.018;2023-05-10T10:36:32;1.10;;;1.00;;
4555;SDS011;2290;48.674;9.018;2023-05-10T10:39:08;1.00;;;0.90;;
4555;SDS011;2290;48.674;9.018;2023-05-10T10:41:38;1.10;;;1.00;;
4555;SDS011;2290;48.674;9.018;2023-05-10T10:46:59;1.20;;;0.90;;
4555;SDS011;2290;48.674;9.018;2023-05-10T10:49:50;1.00;;;0.80;;
4555;SDS011;2290;48.674;9.018;2023-05-10T10:52:36;1.57;;;1.00;;
4555;SDS011;2290;48.674;9.018;2023-05-10T10:57:43;2.77;;;0.90;;
4555;SDS011;2290;48.674;9.018;2023-05-10T11:03:05;5.70;;;1.00;;
4555;SDS011;2290;48.674;9.018;2023-05-10T11:05:49;0.97;;;0.87;;
4555;SDS011;2290;48.674;9.018;2023-05-10T11:08:26;2.70;;;1.00;;
4555;SDS011;2290;48.674;9.018;2023-05-10T11:11:03;1.10;;;0.90;;
4555;SDS011;2290;48.674;9.018;2023-05-10T11:13:33;1.43;;;1.03;;
4555;SDS011;2290;48.674;9.018;2023-05-10T11:16:12;2.30;;;0.90;;
4555;SDS011;2290;48.674;9.018;2023-05-10T11:21:24;3.97;;;0.90;;
4555;SDS011;2290;48.674;9.018;2023-05-10T11:23:51;3.10;;;0.93;;
4555;SDS011;2290;48.674;9.018;2023-05-10T11:26:25;1.73;;;1.17;;
4555;SDS011;2290;48.674;9.018;2023-05-10T11:28:55;1.50;;;1.00;;
4555;SDS011;2290;48.674;9.018;2023-05-10T11:31:24;1.93;;;1.10;;
4555;SDS011;2290;48.674;9.018;2023-05-10T11:33:55;1.43;;;0.90;;
4555;SDS011;2290;48.674;9.018;2023-05-10T11:36:29;9.20;;;1.03;;
4555;SDS011;2290;48.674;9.018;2023-05-10T11:38:58;1.00;;;0.90;;
4555;SDS011;2290;48.674;9.018;2023-05-10T11:41:25;1.40;;;1.00;;
4555;SDS011;2290;48.674;9.018;2023-05-10T11:43:53;1.90;;;1.00;;
4555;SDS011;2290;48.674;9.018;2023-05-10T11:46:21;3.03;;;1.00;;
4555;SDS011;2290;48.674;9.018;2023-05-10T11:48:49;1.10;;;1.00;;
4555;SDS011;2290;48.674;9.018;2023-05-10T11:51:19;1.20;;;0.90;;
4555;SDS011;2290;48.674;9.018;2023-05-10T11:53:46;3.87;;;1.13;;
4555;SDS011;2290;48.674;9.018;2023-05-10T11:56:11;1.47;;;1.20;;
4555;SDS011;2290;48.674;9.018;2023-05-10T11:58:38;2.03;;;1.30;;
4555;SDS011;2290;48.674;9.018;2023-05-10T12:01:06;1.50;;;1.20;;
4555;SDS011;2290;48.674;9.018;2023-05-10T12:03:33;1.30;;;1.10;;
4555;SDS011;2290;48.674;9.018;2023-05-10T12:06:00;1.50;;;1.40;;
4555;SDS011;2290;48.674;9.018;2023-05-10T12:08:27;1.10;;;1.00;;
4555;SDS011;2290;48.674;9.018;2023-05-10T12:11:03;1.57;;;0.90;;
4555;SDS011;2290;48.674;9.018;2023-05-10T12:13:37;1.50;;;1.13;;
4555;SDS011;2290;48.674;9.018;2023-05-10T12:16:13;1.40;;;1.13;;
4555;SDS011;2290;48.674;9.018;2023-05-10T12:18:43;1.10;;;0.97;;
4555;SDS011;2290;48.674;9.018;2023-05-10T12:21:10;2.97;;;1.07;;
4555;SDS011;2290;48.674;9.018;2023-05-10T12:23:38;1.23;;;1.13;;
4555;SDS011;2290;48.674;9.018;2023-05-10T12:26:04;1.50;;;1.17;;
4555;SDS011;2290;48.674;9.018;2023-05-10T12:28:31;2.00;;;1.07;;
4555;SDS011;2290;48.674;9.018;2023-05-10T12:30:59;1.83;;;1.20;;
4555;SDS011;2290;48.674;9.018;2023-05-10T12:33:25;1.87;;;1.00;;
4555;SDS011;2290;48.674;9.018;2023-05-10T12:35:51;2.03;;;1.00;;
4555;SDS011;2290;48.674;9.018;2023-05-10T12:38:29;2.50;;;1.13;;
4555;SDS011;2290;48.674;9.018;2023-05-10T12:40:56;1.80;;;1.27;;
4555;SDS011;2290;48.674;9.018;2023-05-10T12:43:23;1.27;;;1.17;;
4555;SDS011;2290;48.674;9.018;2023-05-10T12:45:48;1.20;;;0.93;;
4555;SDS011;2290;48.674;9.018;2023-05-10T12:48:14;2.97;;;1.83;;
4555;SDS011;2290;48.674;9.018;2023-05-10T12:50:40;2.47;;;1.60;;
4555;SDS011;2290;48.674;9.018;2023-05-10T12:53:06;1.20;;;1.10;;
4555;SDS011;2290;48.674;9.018;2023-05-10T12:55:31;4.27;;;1.37;;
4555;SDS011;2290;48.674;9.018;2023-05-10T12:57:57;1.77;;;1.20;;
4555;SDS011;2290;48.674;9.018;2023-05-10T13:00:24;1.83;;;1.00;;
4555;SDS011;2290;48.674;9.018;2023-05-10T13:02:50;1.30;;;1.10;;
4555;SDS011;2290;48.674;9.018;2023-05-10T13:05:16;1.10;;;1.00;;
4555;SDS011;2290;48.674;9.018;2023-05-10T13:07:41;1.90;;;1.13;;
4555;SDS011;2290;48.674;9.018;2023-05-10T13:10:08;1.77;;;1.20;;
4555;SDS011;2290;48.674;9.018;2023-05-10T13:12:35;1.43;;;1.33;;
4555;SDS011;2290;48.674;9.018;2023-05-10T13:15:00;1.13;;;1.03;;
4555;SDS011;2290;48.674;9.018;2023-05-10T13:17:28;1.60;;;1.27;;
4555;SDS011;2290;48.674;9.018;2023-05-10T13:19:54;1.07;;;0.97;;
4555;SDS011;2290;48.674;9.018;2023-05-10T13:22:20;5.83;;;1.47;;
4555;SDS011;2290;48.674;9.018;2023-05-10T13:24:45;1.87;;;1.10;;
4555;SDS011;2290;48.674;9.018;2023-05-10T13:27:11;2.90;;;1.00;;
4555;SDS011;2290;48.674;9.018;2023-05-10T13:29:37;1.67;;;1.20;;
4555;SDS011;2290;48.674;9.018;2023-05-10T13:32:03;3.50;;;1.40;;
4555;SDS011;2290;48.674;9.018;2023-05-10T13:34:29;1.30;;;1.20;;
4555;SDS011;2290;48.674;9.018;2023-05-10T13:36:55;3.20;;;1.47;;
4555;SDS011;2290;48.674;9.018;2023-05-10T13:39:21;1.40;;;1.30;;
4555;SDS011;2290;48.674;9.018;2023-05-10T13:41:48;1.40;;;1.20;;
4555;SDS011;2290;48.674;9.018;2023-05-10T13:44:14;1.23;;;1.07;;
4555;SDS011;2290;48.674;9.018;2023-05-10T13:46:40;1.50;;;1.20;;
4555;SDS011;2290;48.674;9.018;2023-05-10T13:49:08;2.20;;;1.40;;
4555;SDS011;2290;48.674;9.018;2023-05-10T13:51:37;1.50;;;1.23;;
4555;SDS011;2290;48.674;9.018;2023-05-10T13:54:02;2.13;;;1.40;;
4555;SDS011;2290;48.674;9.018;2023-05-10T13:56:28;1.30;;;1.20;;
4555;SDS011;2290;48.674;9.018;2023-05-10T13:58:54;2.27;;;1.27;;
4555;SDS011;2290;48.674;9.018;2023-05-10T14:01:21;1.77;;;1.30;;
4555;SDS011;2290;48.674;9.018;2023-05-10T14:03:47;1.53;;;1.43;;
4555;SDS011;2290;48.674;9.018;2023-05-10T14:06:13;4.40;;;1.10;;
4555;SDS011;2290;48.674;9.018;2023-05-10T14:08:38;1.20;;;1.10;;
4555;SDS011;2290;48.674;9.018;2023-05-10T14:11:04;3.57;;;1.30;;
4555;SDS011;2290;48.674;9.018;2023-05-10T14:13:30;1.50;;;1.40;;
4555;SDS011;2290;48.674;9.018;2023-05-10T14:15:55;1.60;;;1.30;;
4555;SDS011;2290;48.674;9.018;2023-05-10T14:18:21;2.13;;;1.27;;
4555;SDS011;2290;48.674;9.018;2023-05-10T14:20:47;5.67;;;1.27;;
4555;SDS011;2290;48.674;9.018;2023-05-10T14:23:12;1.70;;;1.40;;
4555;SDS011;2290;48.674;9.018;2023-05-10T14:25:39;1.70;;;1.47;;
4555;SDS011;2290;48.674;9.018;2023-05-10T14:28:06;1.83;;;1.30;;
4555;SDS011;2290;48.674;9.018;2023-05-10T14:30:32;2.13;;;1.30;;
4555;SDS011;2290;48.674;9.018;2023-05-10T14:33:18;2.17;;;1.33;;
4555;SDS011;2290;48.674;9.018;2023-05-10T14:35:44;1.40;;;1.23;;
4555;SDS011;2290;48.674;9.018;2023-05-10T14:38:11;3.10;;;1.40;;
4555;SDS011;2290;48.674;9.018;2023-05-10T14:40:37;1.63;;;1.30;;
4555;SDS011;2290;48.674;9.018;2023-05-10T14:43:03;1.50;;;1.20;;
4555;SDS011;2290;48.674;9.018;2023-05-10T14:45:28;2.00;;;1.30;;
4555;SDS011;2290;48.674;9.018;2023-05-10T14:47:54;1.80;;;1.10;;
4555;SDS011;2290;48.674;9.018;2023-05-10T14:50:19;2.20;;;1.10;;
4555;SDS011;2290;48.674;9.018;2023-05-10T14:52:49;1.20;;;1.10;;
4555;SDS011;2290;48.674;9.018;2023-05-10T14:55:15;1.87;;;1.20;;
4555;SDS011;2290;48.674;9.018;2023-05-10T14:57:40;1.50;;;0.93;;
4555;SDS011;2290;48.674;9.018;2023-05-10T15:00:06;1.20;;;1.10;;
4555;SDS011;2290;48.674;9.018;2023-05-10T15:02:34;1.10;;;1.00;;
4555;SDS011;2290;48.674;9.018;2023-05-10T15:05:01;1.50;;;1.00;;
4555;SDS011;2290;48.674;9.018;2023-05-10T15:07:27;1.60;;;1.40;;
4555;SDS011;2290;48.674;9.018;2023-05-10T15:09:52;1.33;;;1.20;;
4555;SDS011;2290;48.674;9.018;2023-05-10T15:12:19;1.13;;;1.03;;
4555;SDS011;2290;48.674;9.018;2023-05-10T15:14:44;1.00;;;0.90;;
4555;SDS011;2290;48.674;9.018;2023-05-10T15:17:10;2.10;;;1.20;;
4555;SDS011;2290;48.674;9.018;2023-05-10T15:19:35;1.23;;;1.13;;
4555;SDS011;2290;48.674;9.018;2023-05-10T15:22:01;1.67;;;1.00;;
4555;SDS011;2290;48.674;9.018;2023-05-10T15:24:28;2.23;;;0.90;;
4555;SDS011;2290;48.674;9.018;2023-05-10T15:26:54;1.07;;;0.90;;
4555;SDS011;2290;48.674;9.018;2023-05-10T15:29:20;1.30;;;1.00;;
4555;SDS011;2290;48.674;9.018;2023-05-10T15:31:46;1.10;;;1.00;;
4555;SDS011;2290;48.674;9.018;2023-05-10T15:34:14;1.00;;;0.90;;
4555;SDS011;2290;48.674;9.018;2023-05-10T15:36:39;2.37;;;1.00;;
4555;SDS011;2290;48.674;9.018;2023-05-10T15:39:05;1.00;;;0.90;;
4555;SDS011;2290;48.674;9.018;2023-05-10T15:41:31;1.33;;;1.10;;
4555;SDS011;2290;48.674;9.018;2023-05-10T15:43:57;1.30;;;1.10;;
4555;SDS011;2290;48.674;9.018;2023-05-10T15:46:29;1.13;;;1.03;;
4555;SDS011;2290;48.674;9.018;2023-05-10T15:48:55;1.93;;;1.00;;
4555;SDS011;2290;48.674;9.018;2023-05-10T15:51:23;1.03;;;0.90;;
4555;SDS011;2290;48.674;9.018;2023-05-10T15:53:49;1.77;;;1.07;;
4555;SDS011;2290;48.674;9.018;2023-05-10T15:56:14;1.27;;;1.07;;
4555;SDS011;2290;48.674;9.018;2023-05-10T15:58:40;1.10;;;1.00;;